sensor_id;sensor_type;location;lat;lon;timestamp;P1;durP1;ratioP1;P2;durP2;ratioP2
20910;SDS011;10615;42.702;23.314;2022-08-25T00:01:01;21.70;;;10.02;;
20910;SDS011;10615;42.702;23.314;2022-08-25T00:02:07;24.23;;;11.05;;
20910;SDS011;10615;42.702;23.314;2022-08-25T00:03:08;25.02;;;10.85;;
20910;SDS011;10615;42.702;23.314;2022-08-25T00:04:10;24.05;;;9.82;;
20910;SDS011;10615;42.702;23.314;2022-08-25T00:05:13;20.60;;;10.30;;
20910;SDS011;10615;42.702;23.314;2022-08-25T00:06:14;21.17;;;10.18;;
20910;SDS011;10615;42.702;23.314;2022-08-25T00:07:15;24.33;;;10.57;;
20910;SDS011;10615;42.702;23.314;2022-08-25T00:08:15;34.53;;;11.80;;
20910;SDS011;10615;42.702;23.314;2022-08-25T00:09:18;25.70;;;11.38;;
20910;SDS011;10615;42.702;23.314;2022-08-25T00:10:20;27.48;;;10.55;;
20910;SDS011;10615;42.702;23.314;2022-08-25T00:11:22;28.83;;;10.88;;
20910;SDS011;10615;42.702;23.314;2022-08-25T00:12:23;25.17;;;10.07;;
20910;SDS011;10615;42.702;23.314;2022-08-25T00:13:25;27.85;;;11.55;;
20910;SDS011;10615;42.702;23.314;2022-08-25T00:14:27;22.60;;;11.07;;
20910;SDS011;10615;42.702;23.314;2022-08-25T00:15:32;21.13;;;10.70;;
20910;SDS011;10615;42.702;23.314;2022-08-25T00:16:33;27.70;;;11.02;;
20910;SDS011;10615;42.702;23.314;2022-08-25T00:17:34;21.75;;;10.80;;
20910;SDS011;10615;42.702;23.314;2022-08-25T00:18:35;25.88;;;10.70;;
20910;SDS011;10615;42.702;23.314;2022-08-25T00:19:36;26.13;;;9.90;;
20910;SDS011;10615;42.702;23.314;2022-08-25T00:20:37;26.58;;;11.00;;
20910;SDS011;10615;42.702;23.314;2022-08-25T00:21:38;25.05;;;10.32;;
20910;SDS011;10615;42.702;23.314;2022-08-25T00:22:40;24.65;;;11.10;;
20910;SDS011;10615;42.702;23.314;2022-08-25T00:23:41;29.02;;;11.30;;
20910;SDS011;10615;42.702;23.314;2022-08-25T00:24:42;26.55;;;10.20;;
20910;SDS011;10615;42.702;23.314;2022-08-25T00:25:43;25.00;;;11.50;;
20910;SDS011;10615;42.702;23.314;2022-08-25T00:26:44;31.25;;;11.77;;
20910;SDS011;10615;42.702;23.314;2022-08-25T00:27:46;29.45;;;11.30;;
20910;SDS011;10615;42.702;23.314;2022-08-25T00:28:47;24.10;;;11.75;;
20910;SDS011;10615;42.702;23.314;2022-08-25T00:29:48;26.38;;;11.50;;
20910;SDS011;10615;42.702;23.314;2022-08-25T00:30:50;22.58;;;10.45;;
20910;SDS011;10615;42.702;23.314;2022-08-25T00:31:51;25.75;;;10.63;;
20910;SDS011;10615;42.702;23.314;2022-08-25T00:32:52;21.05;;;10.98;;
20910;SDS011;10615;42.702;23.314;2022-08-25T00:33:53;19.48;;;10.55;;
20910;SDS011;10615;42.702;23.314;2022-08-25T00:34:54;24.85;;;10.90;;
20910;SDS011;10615;42.702;23.314;2022-08-25T00:35:54;24.80;;;10.98;;
20910;SDS011;10615;42.702;23.314;2022-08-25T00:36:56;24.73;;;10.75;;
20910;SDS011;10615;42.702;23.314;2022-08-25T00:37:56;22.30;;;10.98;;
20910;SDS011;10615;42.702;23.314;2022-08-25T00:38:57;25.52;;;11.00;;
20910;SDS011;10615;42.702;23.314;2022-08-25T00:39:58;20.92;;;10.23;;
20910;SDS011;10615;42.702;23.314;2022-08-25T00:40:59;26.52;;;10.70;;
20910;SDS011;10615;42.702;23.314;2022-08-25T00:42:06;25.15;;;10.88;;
20910;SDS011;10615;42.702;23.314;2022-08-25T00:43:07;26.42;;;11.32;;
20910;SDS011;10615;42.702;23.314;2022-08-25T00:44:09;20.23;;;10.70;;
20910;SDS011;10615;42.702;23.314;2022-08-25T00:45:12;22.55;;;10.65;;
20910;SDS011;10615;42.702;23.314;2022-08-25T00:46:14;22.83;;;10.88;;
20910;SDS011;10615;42.702;23.314;2022-08-25T00:47:17;23.77;;;10.27;;
20910;SDS011;10615;42.702;23.314;2022-08-25T00:48:18;23.77;;;11.23;;
20910;SDS011;10615;42.702;23.314;2022-08-25T00:50:40;29.70;;;10.52;;
20910;SDS011;10615;42.702;23.314;2022-08-25T00:51:51;29.50;;;11.65;;
20910;SDS011;10615;42.702;23.314;2022-08-25T00:52:59;28.60;;;10.90;;
20910;SDS011;10615;42.702;23.314;2022-08-25T00:54:03;23.50;;;11.23;;
20910;SDS011;10615;42.702;23.314;2022-08-25T00:55:08;27.05;;;11.23;;
20910;SDS011;10615;42.702;23.314;2022-08-25T00:56:10;22.38;;;10.57;;
20910;SDS011;10615;42.702;23.314;2022-08-25T00:57:14;24.60;;;10.63;;
20910;SDS011;10615;42.702;23.314;2022-08-25T00:58:17;27.85;;;10.55;;
20910;SDS011;10615;42.702;23.314;2022-08-25T00:59:24;18.95;;;10.23;;
20910;SDS011;10615;42.702;23.314;2022-08-25T01:00:33;20.95;;;10.95;;
20910;SDS011;10615;42.702;23.314;2022-08-25T01:01:37;25.42;;;11.02;;
20910;SDS011;10615;42.702;23.314;2022-08-25T01:02:38;29.10;;;11.15;;
20910;SDS011;10615;42.702;23.314;2022-08-25T01:03:39;25.02;;;11.20;;
20910;SDS011;10615;42.702;23.314;2022-08-25T01:04:40;29.63;;;11.68;;
20910;SDS011;10615;42.702;23.314;2022-08-25T01:05:42;20.13;;;10.60;;
20910;SDS011;10615;42.702;23.314;2022-08-25T01:06:44;20.70;;;11.02;;
20910;SDS011;10615;42.702;23.314;2022-08-25T01:07:47;23.83;;;11.25;;
20910;SDS011;10615;42.702;23.314;2022-08-25T01:08:49;21.85;;;11.05;;
20910;SDS011;10615;42.702;23.314;2022-08-25T01:09:51;25.40;;;10.55;;
20910;SDS011;10615;42.702;23.314;2022-08-25T01:10:53;23.55;;;11.40;;
20910;SDS011;10615;42.702;23.314;2022-08-25T01:11:55;25.75;;;11.38;;
20910;SDS011;10615;42.702;23.314;2022-08-25T01:13:40;28.35;;;12.35;;
20910;SDS011;10615;42.702;23.314;2022-08-25T01:14:27;26.63;;;11.30;;
20910;SDS011;10615;42.702;23.314;2022-08-25T01:15:30;28.40;;;11.02;;
20910;SDS011;10615;42.702;23.314;2022-08-25T01:16:33;26.08;;;11.45;;
20910;SDS011;10615;42.702;23.314;2022-08-25T01:17:49;24.92;;;12.05;;
20910;SDS011;10615;42.702;23.314;2022-08-25T01:18:54;23.55;;;11.27;;
20910;SDS011;10615;42.702;23.314;2022-08-25T01:19:56;24.08;;;11.60;;
20910;SDS011;10615;42.702;23.314;2022-08-25T01:20:57;26.70;;;11.13;;
20910;SDS011;10615;42.702;23.314;2022-08-25T01:21:58;23.85;;;10.80;;
20910;SDS011;10615;42.702;23.314;2022-08-25T01:22:59;24.80;;;11.65;;
20910;SDS011;10615;42.702;23.314;2022-08-25T01:24:00;26.38;;;10.60;;
20910;SDS011;10615;42.702;23.314;2022-08-25T01:25:03;28.10;;;13.10;;
20910;SDS011;10615;42.702;23.314;2022-08-25T01:26:14;31.10;;;13.48;;
20910;SDS011;10615;42.702;23.314;2022-08-25T01:27:17;25.95;;;12.73;;
20910;SDS011;10615;42.702;23.314;2022-08-25T01:28:18;28.15;;;11.50;;
20910;SDS011;10615;42.702;23.314;2022-08-25T01:29:20;22.05;;;10.93;;
20910;SDS011;10615;42.702;23.314;2022-08-25T01:30:21;27.67;;;11.02;;
20910;SDS011;10615;42.702;23.314;2022-08-25T01:31:22;24.75;;;10.25;;
20910;SDS011;10615;42.702;23.314;2022-08-25T01:32:23;27.52;;;11.07;;
20910;SDS011;10615;42.702;23.314;2022-08-25T01:33:25;26.50;;;10.77;;
20910;SDS011;10615;42.702;23.314;2022-08-25T01:34:26;28.40;;;11.52;;
20910;SDS011;10615;42.702;23.314;2022-08-25T01:35:29;20.58;;;10.75;;
20910;SDS011;10615;42.702;23.314;2022-08-25T01:36:30;18.88;;;10.68;;
20910;SDS011;10615;42.702;23.314;2022-08-25T01:37:32;25.30;;;11.15;;
20910;SDS011;10615;42.702;23.314;2022-08-25T01:38:34;25.80;;;11.48;;
20910;SDS011;10615;42.702;23.314;2022-08-25T01:39:35;23.60;;;10.90;;
20910;SDS011;10615;42.702;23.314;2022-08-25T01:40:36;22.50;;;10.85;;
20910;SDS011;10615;42.702;23.314;2022-08-25T01:43:01;27.75;;;9.90;;
20910;SDS011;10615;42.702;23.314;2022-08-25T01:44:05;27.55;;;10.20;;
20910;SDS011;10615;42.702;23.314;2022-08-25T01:45:06;26.33;;;10.27;;
20910;SDS011;10615;42.702;23.314;2022-08-25T01:46:07;20.95;;;10.15;;
20910;SDS011;10615;42.702;23.314;2022-08-25T01:47:08;23.70;;;10.30;;
20910;SDS011;10615;42.702;23.314;2022-08-25T01:48:10;21.38;;;9.40;;
20910;SDS011;10615;42.702;23.314;2022-08-25T01:49:12;25.17;;;10.18;;
20910;SDS011;10615;42.702;23.314;2022-08-25T01:50:13;26.48;;;9.68;;
20910;SDS011;10615;42.702;23.314;2022-08-25T01:51:14;32.65;;;9.23;;
20910;SDS011;10615;42.702;23.314;2022-08-25T01:53:33;24.30;;;9.50;;
20910;SDS011;10615;42.702;23.314;2022-08-25T01:54:34;19.88;;;8.55;;
20910;SDS011;10615;42.702;23.314;2022-08-25T01:55:35;20.10;;;8.65;;
20910;SDS011;10615;42.702;23.314;2022-08-25T01:56:50;26.50;;;9.07;;
20910;SDS011;10615;42.702;23.314;2022-08-25T01:57:51;22.55;;;9.18;;
20910;SDS011;10615;42.702;23.314;2022-08-25T01:58:52;16.27;;;8.05;;
20910;SDS011;10615;42.702;23.314;2022-08-25T01:59:52;23.35;;;9.38;;
20910;SDS011;10615;42.702;23.314;2022-08-25T02:00:54;23.40;;;8.82;;
20910;SDS011;10615;42.702;23.314;2022-08-25T02:01:56;22.52;;;8.35;;
20910;SDS011;10615;42.702;23.314;2022-08-25T02:02:56;18.25;;;8.90;;
20910;SDS011;10615;42.702;23.314;2022-08-25T02:03:57;26.25;;;8.90;;
20910;SDS011;10615;42.702;23.314;2022-08-25T02:04:58;23.00;;;8.85;;
20910;SDS011;10615;42.702;23.314;2022-08-25T02:05:59;16.05;;;8.23;;
20910;SDS011;10615;42.702;23.314;2022-08-25T02:07:01;22.98;;;8.65;;
20910;SDS011;10615;42.702;23.314;2022-08-25T02:08:03;24.98;;;9.02;;
20910;SDS011;10615;42.702;23.314;2022-08-25T02:09:06;18.88;;;8.90;;
20910;SDS011;10615;42.702;23.314;2022-08-25T02:10:12;24.75;;;9.40;;
20910;SDS011;10615;42.702;23.314;2022-08-25T02:11:13;28.33;;;9.00;;
20910;SDS011;10615;42.702;23.314;2022-08-25T02:12:14;25.67;;;9.23;;
20910;SDS011;10615;42.702;23.314;2022-08-25T02:13:15;24.05;;;9.05;;
20910;SDS011;10615;42.702;23.314;2022-08-25T02:14:17;25.70;;;9.07;;
20910;SDS011;10615;42.702;23.314;2022-08-25T02:15:19;22.95;;;8.77;;
20910;SDS011;10615;42.702;23.314;2022-08-25T02:16:21;23.52;;;9.20;;
20910;SDS011;10615;42.702;23.314;2022-08-25T02:17:24;22.00;;;8.80;;
20910;SDS011;10615;42.702;23.314;2022-08-25T02:18:25;24.33;;;9.18;;
20910;SDS011;10615;42.702;23.314;2022-08-25T02:19:26;20.85;;;8.80;;
20910;SDS011;10615;42.702;23.314;2022-08-25T02:20:26;25.38;;;9.18;;
20910;SDS011;10615;42.702;23.314;2022-08-25T02:21:27;23.58;;;8.88;;
20910;SDS011;10615;42.702;23.314;2022-08-25T02:22:28;22.17;;;9.10;;
20910;SDS011;10615;42.702;23.314;2022-08-25T02:23:29;25.30;;;9.63;;
20910;SDS011;10615;42.702;23.314;2022-08-25T02:24:30;22.85;;;8.73;;
20910;SDS011;10615;42.702;23.314;2022-08-25T02:25:31;23.65;;;8.35;;
20910;SDS011;10615;42.702;23.314;2022-08-25T02:26:32;28.55;;;8.65;;
20910;SDS011;10615;42.702;23.314;2022-08-25T02:27:35;22.48;;;8.68;;
20910;SDS011;10615;42.702;23.314;2022-08-25T02:28:35;19.20;;;8.50;;
20910;SDS011;10615;42.702;23.314;2022-08-25T02:29:36;26.52;;;9.02;;
20910;SDS011;10615;42.702;23.314;2022-08-25T02:30:37;27.65;;;8.60;;
20910;SDS011;10615;42.702;23.314;2022-08-25T02:31:40;23.20;;;8.00;;
20910;SDS011;10615;42.702;23.314;2022-08-25T02:32:41;22.02;;;8.70;;
20910;SDS011;10615;42.702;23.314;2022-08-25T02:33:41;20.92;;;8.70;;
20910;SDS011;10615;42.702;23.314;2022-08-25T02:34:42;23.67;;;8.93;;
20910;SDS011;10615;42.702;23.314;2022-08-25T02:35:43;23.55;;;9.13;;
20910;SDS011;10615;42.702;23.314;2022-08-25T02:36:44;21.67;;;8.68;;
20910;SDS011;10615;42.702;23.314;2022-08-25T02:37:44;26.63;;;9.00;;
20910;SDS011;10615;42.702;23.314;2022-08-25T02:38:45;23.98;;;9.25;;
20910;SDS011;10615;42.702;23.314;2022-08-25T02:39:46;19.83;;;9.20;;
20910;SDS011;10615;42.702;23.314;2022-08-25T02:40:47;23.77;;;8.68;;
20910;SDS011;10615;42.702;23.314;2022-08-25T02:41:49;26.48;;;8.52;;
20910;SDS011;10615;42.702;23.314;2022-08-25T02:42:50;20.77;;;8.40;;
20910;SDS011;10615;42.702;23.314;2022-08-25T02:43:51;17.90;;;8.25;;
20910;SDS011;10615;42.702;23.314;2022-08-25T02:44:52;18.45;;;8.70;;
20910;SDS011;10615;42.702;23.314;2022-08-25T02:45:53;23.63;;;8.45;;
20910;SDS011;10615;42.702;23.314;2022-08-25T02:46:55;20.83;;;8.80;;
20910;SDS011;10615;42.702;23.314;2022-08-25T02:47:55;27.98;;;8.50;;
20910;SDS011;10615;42.702;23.314;2022-08-25T02:48:56;25.55;;;8.80;;
20910;SDS011;10615;42.702;23.314;2022-08-25T02:49:57;24.45;;;8.60;;
20910;SDS011;10615;42.702;23.314;2022-08-25T02:50:59;22.02;;;8.95;;
20910;SDS011;10615;42.702;23.314;2022-08-25T02:52:00;22.30;;;8.45;;
20910;SDS011;10615;42.702;23.314;2022-08-25T02:53:01;22.38;;;7.75;;
20910;SDS011;10615;42.702;23.314;2022-08-25T02:54:02;20.85;;;8.40;;
20910;SDS011;10615;42.702;23.314;2022-08-25T02:55:04;23.27;;;8.40;;
20910;SDS011;10615;42.702;23.314;2022-08-25T02:56:08;24.67;;;8.90;;
20910;SDS011;10615;42.702;23.314;2022-08-25T02:57:09;25.85;;;9.23;;
20910;SDS011;10615;42.702;23.314;2022-08-25T02:58:14;27.60;;;9.32;;
20910;SDS011;10615;42.702;23.314;2022-08-25T02:59:15;26.45;;;8.65;;
20910;SDS011;10615;42.702;23.314;2022-08-25T03:00:17;20.80;;;8.95;;
20910;SDS011;10615;42.702;23.314;2022-08-25T03:01:18;19.90;;;8.60;;
20910;SDS011;10615;42.702;23.314;2022-08-25T03:02:19;26.40;;;9.27;;
20910;SDS011;10615;42.702;23.314;2022-08-25T03:03:20;24.15;;;9.15;;
20910;SDS011;10615;42.702;23.314;2022-08-25T03:04:21;19.73;;;7.93;;
20910;SDS011;10615;42.702;23.314;2022-08-25T03:05:21;21.40;;;8.48;;
20910;SDS011;10615;42.702;23.314;2022-08-25T03:06:22;26.50;;;8.82;;
20910;SDS011;10615;42.702;23.314;2022-08-25T03:07:23;24.20;;;8.90;;
20910;SDS011;10615;42.702;23.314;2022-08-25T03:08:24;22.85;;;8.60;;
20910;SDS011;10615;42.702;23.314;2022-08-25T03:09:25;19.42;;;8.00;;
20910;SDS011;10615;42.702;23.314;2022-08-25T03:10:26;17.40;;;8.15;;
20910;SDS011;10615;42.702;23.314;2022-08-25T03:11:27;19.60;;;8.20;;
20910;SDS011;10615;42.702;23.314;2022-08-25T03:12:27;26.45;;;8.85;;
20910;SDS011;10615;42.702;23.314;2022-08-25T03:13:28;18.10;;;8.10;;
20910;SDS011;10615;42.702;23.314;2022-08-25T03:14:29;20.55;;;8.05;;
20910;SDS011;10615;42.702;23.314;2022-08-25T03:15:30;23.73;;;8.52;;
20910;SDS011;10615;42.702;23.314;2022-08-25T03:16:31;25.42;;;8.93;;
20910;SDS011;10615;42.702;23.314;2022-08-25T03:17:31;30.65;;;9.23;;
20910;SDS011;10615;42.702;23.314;2022-08-25T03:18:32;21.08;;;8.80;;
20910;SDS011;10615;42.702;23.314;2022-08-25T03:19:34;20.88;;;8.70;;
20910;SDS011;10615;42.702;23.314;2022-08-25T03:20:34;16.83;;;8.35;;
20910;SDS011;10615;42.702;23.314;2022-08-25T03:21:35;25.90;;;9.20;;
20910;SDS011;10615;42.702;23.314;2022-08-25T03:22:37;19.13;;;8.75;;
20910;SDS011;10615;42.702;23.314;2022-08-25T03:23:39;22.67;;;8.73;;
20910;SDS011;10615;42.702;23.314;2022-08-25T03:24:40;22.98;;;9.27;;
20910;SDS011;10615;42.702;23.314;2022-08-25T03:25:41;23.38;;;9.07;;
20910;SDS011;10615;42.702;23.314;2022-08-25T03:27:00;25.92;;;9.00;;
20910;SDS011;10615;42.702;23.314;2022-08-25T03:28:01;23.40;;;8.57;;
20910;SDS011;10615;42.702;23.314;2022-08-25T03:29:02;21.15;;;8.85;;
20910;SDS011;10615;42.702;23.314;2022-08-25T03:30:06;22.98;;;9.25;;
20910;SDS011;10615;42.702;23.314;2022-08-25T03:31:08;23.77;;;8.60;;
20910;SDS011;10615;42.702;23.314;2022-08-25T03:32:09;23.38;;;8.73;;
20910;SDS011;10615;42.702;23.314;2022-08-25T03:33:10;22.73;;;9.18;;
20910;SDS011;10615;42.702;23.314;2022-08-25T03:34:12;27.50;;;9.63;;
20910;SDS011;10615;42.702;23.314;2022-08-25T03:35:16;22.05;;;8.82;;
20910;SDS011;10615;42.702;23.314;2022-08-25T03:36:16;23.95;;;9.40;;
20910;SDS011;10615;42.702;23.314;2022-08-25T03:37:17;17.75;;;8.48;;
20910;SDS011;10615;42.702;23.314;2022-08-25T03:38:18;20.25;;;9.10;;
20910;SDS011;10615;42.702;23.314;2022-08-25T03:39:20;19.30;;;9.07;;
20910;SDS011;10615;42.702;23.314;2022-08-25T03:40:22;31.50;;;9.15;;
20910;SDS011;10615;42.702;23.314;2022-08-25T03:41:24;23.20;;;8.93;;
20910;SDS011;10615;42.702;23.314;2022-08-25T03:42:27;21.52;;;9.07;;
20910;SDS011;10615;42.702;23.314;2022-08-25T03:43:28;24.30;;;8.63;;
20910;SDS011;10615;42.702;23.314;2022-08-25T03:44:28;24.40;;;8.45;;
20910;SDS011;10615;42.702;23.314;2022-08-25T03:45:29;18.13;;;8.85;;
20910;SDS011;10615;42.702;23.314;2022-08-25T03:46:35;17.75;;;8.65;;
20910;SDS011;10615;42.702;23.314;2022-08-25T03:47:38;25.63;;;11.38;;
20910;SDS011;10615;42.702;23.314;2022-08-25T03:48:39;33.00;;;19.45;;
20910;SDS011;10615;42.702;23.314;2022-08-25T03:49:39;33.58;;;22.45;;
20910;SDS011;10615;42.702;23.314;2022-08-25T03:50:47;31.92;;;16.35;;
20910;SDS011;10615;42.702;23.314;2022-08-25T03:51:51;21.13;;;8.95;;
20910;SDS011;10615;42.702;23.314;2022-08-25T03:52:54;19.58;;;8.57;;
20910;SDS011;10615;42.702;23.314;2022-08-25T03:53:56;25.65;;;9.23;;
20910;SDS011;10615;42.702;23.314;2022-08-25T03:54:57;22.38;;;9.52;;
20910;SDS011;10615;42.702;23.314;2022-08-25T03:55:58;16.55;;;9.05;;
20910;SDS011;10615;42.702;23.314;2022-08-25T03:56:59;15.98;;;9.00;;
20910;SDS011;10615;42.702;23.314;2022-08-25T03:58:00;18.85;;;9.13;;
20910;SDS011;10615;42.702;23.314;2022-08-25T03:59:01;17.88;;;9.30;;
20910;SDS011;10615;42.702;23.314;2022-08-25T04:00:03;20.23;;;9.40;;
20910;SDS011;10615;42.702;23.314;2022-08-25T04:01:08;29.38;;;9.20;;
20910;SDS011;10615;42.702;23.314;2022-08-25T04:02:09;22.92;;;9.02;;
20910;SDS011;10615;42.702;23.314;2022-08-25T04:03:10;16.88;;;9.13;;
20910;SDS011;10615;42.702;23.314;2022-08-25T04:04:11;20.80;;;8.98;;
20910;SDS011;10615;42.702;23.314;2022-08-25T04:05:14;26.17;;;8.98;;
20910;SDS011;10615;42.702;23.314;2022-08-25T04:06:16;22.08;;;9.45;;
20910;SDS011;10615;42.702;23.314;2022-08-25T04:07:17;19.10;;;9.27;;
20910;SDS011;10615;42.702;23.314;2022-08-25T04:08:18;20.25;;;8.98;;
20910;SDS011;10615;42.702;23.314;2022-08-25T04:09:19;18.30;;;8.75;;
20910;SDS011;10615;42.702;23.314;2022-08-25T04:10:20;20.23;;;9.70;;
20910;SDS011;10615;42.702;23.314;2022-08-25T04:11:21;18.70;;;8.35;;
20910;SDS011;10615;42.702;23.314;2022-08-25T04:12:22;22.95;;;8.90;;
20910;SDS011;10615;42.702;23.314;2022-08-25T04:13:23;19.20;;;8.60;;
20910;SDS011;10615;42.702;23.314;2022-08-25T04:14:24;16.77;;;8.85;;
20910;SDS011;10615;42.702;23.314;2022-08-25T04:15:25;18.70;;;8.55;;
20910;SDS011;10615;42.702;23.314;2022-08-25T04:16:26;21.15;;;8.75;;
20910;SDS011;10615;42.702;23.314;2022-08-25T04:17:30;23.67;;;9.65;;
20910;SDS011;10615;42.702;23.314;2022-08-25T04:18:31;20.30;;;8.98;;
20910;SDS011;10615;42.702;23.314;2022-08-25T04:19:33;20.58;;;9.20;;
20910;SDS011;10615;42.702;23.314;2022-08-25T04:20:35;16.65;;;8.45;;
20910;SDS011;10615;42.702;23.314;2022-08-25T04:21:36;24.77;;;9.07;;
20910;SDS011;10615;42.702;23.314;2022-08-25T04:22:38;25.15;;;9.02;;
20910;SDS011;10615;42.702;23.314;2022-08-25T04:23:39;22.92;;;9.23;;
20910;SDS011;10615;42.702;23.314;2022-08-25T04:24:41;30.10;;;9.55;;
20910;SDS011;10615;42.702;23.314;2022-08-25T04:25:42;27.00;;;9.15;;
20910;SDS011;10615;42.702;23.314;2022-08-25T04:26:44;17.77;;;9.23;;
20910;SDS011;10615;42.702;23.314;2022-08-25T04:27:46;25.05;;;9.45;;
20910;SDS011;10615;42.702;23.314;2022-08-25T04:28:47;18.80;;;9.23;;
20910;SDS011;10615;42.702;23.314;2022-08-25T04:29:48;29.88;;;12.70;;
20910;SDS011;10615;42.702;23.314;2022-08-25T04:30:49;24.48;;;9.20;;
20910;SDS011;10615;42.702;23.314;2022-08-25T04:31:50;20.38;;;9.15;;
20910;SDS011;10615;42.702;23.314;2022-08-25T04:32:52;25.70;;;8.98;;
20910;SDS011;10615;42.702;23.314;2022-08-25T04:33:53;20.58;;;9.20;;
20910;SDS011;10615;42.702;23.314;2022-08-25T04:34:54;20.35;;;9.07;;
20910;SDS011;10615;42.702;23.314;2022-08-25T04:35:55;16.23;;;8.80;;
20910;SDS011;10615;42.702;23.314;2022-08-25T04:36:55;21.30;;;9.35;;
20910;SDS011;10615;42.702;23.314;2022-08-25T04:37:57;21.33;;;8.98;;
20910;SDS011;10615;42.702;23.314;2022-08-25T04:38:58;19.85;;;9.25;;
20910;SDS011;10615;42.702;23.314;2022-08-25T04:39:59;24.95;;;9.32;;
20910;SDS011;10615;42.702;23.314;2022-08-25T04:41:01;26.52;;;10.10;;
20910;SDS011;10615;42.702;23.314;2022-08-25T04:42:03;17.08;;;9.10;;
20910;SDS011;10615;42.702;23.314;2022-08-25T04:43:04;20.42;;;9.70;;
20910;SDS011;10615;42.702;23.314;2022-08-25T04:44:05;27.10;;;8.98;;
20910;SDS011;10615;42.702;23.314;2022-08-25T04:45:06;20.95;;;9.05;;
20910;SDS011;10615;42.702;23.314;2022-08-25T04:46:08;17.92;;;8.35;;
20910;SDS011;10615;42.702;23.314;2022-08-25T04:47:14;19.25;;;8.65;;
20910;SDS011;10615;42.702;23.314;2022-08-25T04:48:15;18.83;;;9.43;;
20910;SDS011;10615;42.702;23.314;2022-08-25T04:49:15;18.48;;;9.25;;
20910;SDS011;10615;42.702;23.314;2022-08-25T04:50:16;22.50;;;9.73;;
20910;SDS011;10615;42.702;23.314;2022-08-25T04:51:18;20.65;;;9.70;;
20910;SDS011;10615;42.702;23.314;2022-08-25T04:52:22;19.83;;;9.20;;
20910;SDS011;10615;42.702;23.314;2022-08-25T04:53:23;22.63;;;8.73;;
20910;SDS011;10615;42.702;23.314;2022-08-25T04:54:23;25.60;;;8.27;;
20910;SDS011;10615;42.702;23.314;2022-08-25T04:55:24;26.10;;;8.70;;
20910;SDS011;10615;42.702;23.314;2022-08-25T04:56:25;15.57;;;8.50;;
20910;SDS011;10615;42.702;23.314;2022-08-25T04:57:26;22.75;;;8.57;;
20910;SDS011;10615;42.702;23.314;2022-08-25T04:58:27;20.70;;;8.63;;
20910;SDS011;10615;42.702;23.314;2022-08-25T04:59:28;23.20;;;9.13;;
20910;SDS011;10615;42.702;23.314;2022-08-25T05:00:28;19.60;;;8.52;;
20910;SDS011;10615;42.702;23.314;2022-08-25T05:01:29;23.05;;;8.95;;
20910;SDS011;10615;42.702;23.314;2022-08-25T05:02:30;18.75;;;8.27;;
20910;SDS011;10615;42.702;23.314;2022-08-25T05:03:31;22.65;;;9.15;;
20910;SDS011;10615;42.702;23.314;2022-08-25T05:04:33;22.50;;;9.05;;
20910;SDS011;10615;42.702;23.314;2022-08-25T05:05:35;19.33;;;8.60;;
20910;SDS011;10615;42.702;23.314;2022-08-25T05:06:37;24.95;;;9.60;;
20910;SDS011;10615;42.702;23.314;2022-08-25T05:07:38;21.85;;;8.60;;
20910;SDS011;10615;42.702;23.314;2022-08-25T05:08:38;23.55;;;8.98;;
20910;SDS011;10615;42.702;23.314;2022-08-25T05:09:39;23.35;;;9.32;;
20910;SDS011;10615;42.702;23.314;2022-08-25T05:10:40;20.13;;;9.00;;
20910;SDS011;10615;42.702;23.314;2022-08-25T05:11:41;21.15;;;8.93;;
20910;SDS011;10615;42.702;23.314;2022-08-25T05:12:42;20.33;;;8.93;;
20910;SDS011;10615;42.702;23.314;2022-08-25T05:13:44;22.13;;;8.68;;
20910;SDS011;10615;42.702;23.314;2022-08-25T05:14:45;26.08;;;9.68;;
20910;SDS011;10615;42.702;23.314;2022-08-25T05:15:54;23.00;;;8.30;;
20910;SDS011;10615;42.702;23.314;2022-08-25T05:16:56;19.10;;;9.52;;
20910;SDS011;10615;42.702;23.314;2022-08-25T05:17:57;18.77;;;8.30;;
20910;SDS011;10615;42.702;23.314;2022-08-25T05:18:57;19.17;;;9.10;;
20910;SDS011;10615;42.702;23.314;2022-08-25T05:19:58;22.45;;;9.00;;
20910;SDS011;10615;42.702;23.314;2022-08-25T05:21:03;23.60;;;8.25;;
20910;SDS011;10615;42.702;23.314;2022-08-25T05:22:05;20.45;;;8.55;;
20910;SDS011;10615;42.702;23.314;2022-08-25T05:23:06;17.27;;;9.15;;
20910;SDS011;10615;42.702;23.314;2022-08-25T05:24:07;21.15;;;9.18;;
20910;SDS011;10615;42.702;23.314;2022-08-25T05:25:08;17.00;;;8.27;;
20910;SDS011;10615;42.702;23.314;2022-08-25T05:26:10;22.25;;;8.95;;
20910;SDS011;10615;42.702;23.314;2022-08-25T05:27:13;24.35;;;9.13;;
20910;SDS011;10615;42.702;23.314;2022-08-25T05:28:14;21.70;;;9.35;;
20910;SDS011;10615;42.702;23.314;2022-08-25T05:29:15;18.50;;;9.48;;
20910;SDS011;10615;42.702;23.314;2022-08-25T05:30:16;21.77;;;8.93;;
20910;SDS011;10615;42.702;23.314;2022-08-25T05:31:17;19.00;;;8.27;;
20910;SDS011;10615;42.702;23.314;2022-08-25T05:32:19;21.95;;;10.15;;
20910;SDS011;10615;42.702;23.314;2022-08-25T05:33:20;19.55;;;10.18;;
20910;SDS011;10615;42.702;23.314;2022-08-25T05:34:20;27.90;;;13.82;;
20910;SDS011;10615;42.702;23.314;2022-08-25T05:35:21;27.90;;;13.80;;
20910;SDS011;10615;42.702;23.314;2022-08-25T05:36:23;28.77;;;13.30;;
20910;SDS011;10615;42.702;23.314;2022-08-25T05:37:25;19.27;;;11.27;;
20910;SDS011;10615;42.702;23.314;2022-08-25T05:38:26;17.83;;;8.48;;
20910;SDS011;10615;42.702;23.314;2022-08-25T05:39:27;16.05;;;9.32;;
20910;SDS011;10615;42.702;23.314;2022-08-25T05:40:31;21.25;;;9.93;;
20910;SDS011;10615;42.702;23.314;2022-08-25T05:41:32;21.67;;;9.23;;
20910;SDS011;10615;42.702;23.314;2022-08-25T05:42:33;18.17;;;9.35;;
20910;SDS011;10615;42.702;23.314;2022-08-25T05:43:35;19.23;;;8.90;;
20910;SDS011;10615;42.702;23.314;2022-08-25T05:44:36;18.58;;;8.38;;
20910;SDS011;10615;42.702;23.314;2022-08-25T05:45:37;23.70;;;8.82;;
20910;SDS011;10615;42.702;23.314;2022-08-25T05:46:38;19.60;;;8.10;;
20910;SDS011;10615;42.702;23.314;2022-08-25T05:47:38;17.65;;;9.05;;
20910;SDS011;10615;42.702;23.314;2022-08-25T05:48:39;17.33;;;10.30;;
20910;SDS011;10615;42.702;23.314;2022-08-25T05:49:40;28.02;;;18.00;;
20910;SDS011;10615;42.702;23.314;2022-08-25T05:50:41;20.77;;;10.70;;
20910;SDS011;10615;42.702;23.314;2022-08-25T05:51:50;21.85;;;16.65;;
20910;SDS011;10615;42.702;23.314;2022-08-25T05:52:51;21.30;;;9.60;;
20910;SDS011;10615;42.702;23.314;2022-08-25T05:53:52;21.67;;;9.60;;
20910;SDS011;10615;42.702;23.314;2022-08-25T05:54:53;17.85;;;9.55;;
20910;SDS011;10615;42.702;23.314;2022-08-25T05:55:55;20.90;;;8.07;;
20910;SDS011;10615;42.702;23.314;2022-08-25T05:56:57;16.90;;;8.68;;
20910;SDS011;10615;42.702;23.314;2022-08-25T05:57:58;20.20;;;8.75;;
20910;SDS011;10615;42.702;23.314;2022-08-25T05:58:59;18.30;;;8.75;;
20910;SDS011;10615;42.702;23.314;2022-08-25T06:00:00;18.92;;;9.18;;
20910;SDS011;10615;42.702;23.314;2022-08-25T06:01:04;17.00;;;8.90;;
20910;SDS011;10615;42.702;23.314;2022-08-25T06:02:23;14.25;;;9.77;;
20910;SDS011;10615;42.702;23.314;2022-08-25T06:03:42;18.80;;;9.40;;
20910;SDS011;10615;42.702;23.314;2022-08-25T06:04:43;19.30;;;10.02;;
20910;SDS011;10615;42.702;23.314;2022-08-25T06:05:44;19.35;;;9.35;;